Terminal Aerodrome Forecast
Issued by NWS Mobile, AL

Home | Current Version | Previous Version | Text Only | Print | Product List | Glossary On
Versions: 1 2 3 4 5 6 7 8 9 10 11 12 13
000
FTUS44 KMOB 282323
TAFPNS
TAF
KPNS 282323Z 2900/2924 07007KT P6SM SHRA SCT023 SCT040 BKN070
     FM290100 09006KT P6SM VCSH SCT050 BKN080
     FM290900 13006KT P6SM TSRA BKN030CB
     FM291500 13010KT 3SM TSRA BKN020CB=

USA.gov is the U.S. government's official web portal to all federal, state and local government web resources and services.